Tests — V7NV7 — position and weather

sailwx.info

Track history (hours):
 
Tides and Currents Weather Stations Pressure Air Temp Water Temp Dewpoint Dewpoint Depression Visibility Wind Speed Wind Dir Waves Ship Positions

Tests

Last reported at 2017-Aug-07 06:09 UTC. Time now 2017-Aug-18 01:10 UTC.
Position N 29°51' W 121°49'.
Warning: this ship's position is 10 days out of date.

Length 37 m; draft 5.7 m.

Type: Cargo ship. MMSI: 438003028.

Date/timePositionNaut miles runAvg speedWind from/ knotsBaromVisibWave heightAir tempDewpointWater temp
2017-Aug-07 06:09N 29°51' W 121°49'213.8
2017-Aug-07 06:00N 29°52' W 121°51'20913.7
2017-Aug-06 14:42N 32°02' W 125°03'413.1
2017-Aug-06 14:26N 32°04' W 125°06'19013.5
2017-Aug-06 00:20N 33°56' W 128°09'6213.4
2017-Aug-05 19:42N 34°32' W 129°10'1913.5
2017-Aug-05 18:18N 34°43' W 129°29'813.7
2017-Aug-05 17:45N 34°48' W 129°37'413.4
2017-Aug-05 17:29N 34°50' W 129°40'22613.6
2017-Aug-05 00:54N 36°54' W 133°33'4 6.7
2017-Aug-05 00:18N 36°57' W 133°38'513.5
2017-Aug-04 23:57N 36°59' W 133°42'713.4
2017-Aug-04 23:25N 37°03' W 133°50'613.5
2017-Aug-04 22:59N 37°06' W 133°56'613.2
2017-Aug-04 22:30N 37°09' W 134°03'713.3
2017-Aug-04 22:00N 37°13' W 134°10'713.3
2017-Aug-04 21:30N 37°16' W 134°17'713.5
2017-Aug-04 21:00N 37°20' W 134°24'713.6
2017-Aug-04 20:30N 37°24' W 134°31'713.4
2017-Aug-04 20:00N 37°28' W 134°38'713.2
2017-Aug-04 19:30N 37°31' W 134°46'613.1
2017-Aug-04 19:00N 37°35' W 134°52'713.2
2017-Aug-04 18:30N 37°38' W 134°59'713.0
2017-Aug-04 18:00N 37°42' W 135°06'713.1
2017-Aug-04 17:30N 37°45' W 135°13'712.9
2017-Aug-04 17:00N 37°49' W 135°20'713.0
2017-Aug-04 16:25N 37°53' W 135°28'512.9
2017-Aug-04 16:00N 37°56' W 135°34'813.1
2017-Aug-04 15:25N 37°60' W 135°42'513.0
2017-Aug-04 15:00N 38°02' W 135°48'1313.0
2017-Aug-04 14:00N 38°08' W 136°03'712.6
2017-Aug-04 13:28N 38°11' W 136°10'812.7
2017-Aug-04 12:51N 38°15' W 136°19'1312.7
2017-Aug-04 11:50N 38°22' W 136°33'2012.7
2017-Aug-04 10:14N 38°32' W 136°56'312.4
2017-Aug-04 10:00N 38°33' W 136°59'612.5
2017-Aug-04 09:30N 38°36' W 137°06'612.8
2017-Aug-04 09:00N 38°40' W 137°13'612.8
2017-Aug-04 08:30N 38°43' W 137°20'  
Track history (hours):
 
Tides and Currents Weather Stations Pressure Air Temp Water Temp Dewpoint Dewpoint Depression Visibility Wind Speed Wind Dir Waves Ship Positions

Tests

Last reported at 2017-Aug-07 06:09 UTC. Time now 2017-Aug-18 01:10 UTC.
Position N 29°51' W 121°49'.
Warning: this ship's position is 10 days out of date.

Length 37 m; draft 5.7 m.

Type: Cargo ship. MMSI: 438003028.

Date/timePositionNaut miles runAvg speedWind from/ knotsBaromVisibWave heightAir tempDewpointWater temp
2017-Aug-07 06:09N 29°51' W 121°49'213.8
2017-Aug-07 06:00N 29°52' W 121°51'20913.7
2017-Aug-06 14:42N 32°02' W 125°03'413.1
2017-Aug-06 14:26N 32°04' W 125°06'19013.5
2017-Aug-06 00:20N 33°56' W 128°09'6213.4
2017-Aug-05 19:42N 34°32' W 129°10'1913.5
2017-Aug-05 18:18N 34°43' W 129°29'813.7
2017-Aug-05 17:45N 34°48' W 129°37'413.4
2017-Aug-05 17:29N 34°50' W 129°40'22613.6
2017-Aug-05 00:54N 36°54' W 133°33'4 6.7
2017-Aug-05 00:18N 36°57' W 133°38'513.5
2017-Aug-04 23:57N 36°59' W 133°42'713.4
2017-Aug-04 23:25N 37°03' W 133°50'613.5
2017-Aug-04 22:59N 37°06' W 133°56'613.2
2017-Aug-04 22:30N 37°09' W 134°03'713.3
2017-Aug-04 22:00N 37°13' W 134°10'713.3
2017-Aug-04 21:30N 37°16' W 134°17'713.5
2017-Aug-04 21:00N 37°20' W 134°24'713.6
2017-Aug-04 20:30N 37°24' W 134°31'713.4
2017-Aug-04 20:00N 37°28' W 134°38'713.2
2017-Aug-04 19:30N 37°31' W 134°46'613.1
2017-Aug-04 19:00N 37°35' W 134°52'713.2
2017-Aug-04 18:30N 37°38' W 134°59'713.0
2017-Aug-04 18:00N 37°42' W 135°06'713.1
2017-Aug-04 17:30N 37°45' W 135°13'712.9
2017-Aug-04 17:00N 37°49' W 135°20'713.0
2017-Aug-04 16:25N 37°53' W 135°28'512.9
2017-Aug-04 16:00N 37°56' W 135°34'813.1
2017-Aug-04 15:25N 37°60' W 135°42'513.0
2017-Aug-04 15:00N 38°02' W 135°48'1313.0
2017-Aug-04 14:00N 38°08' W 136°03'712.6
2017-Aug-04 13:28N 38°11' W 136°10'812.7
2017-Aug-04 12:51N 38°15' W 136°19'1312.7
2017-Aug-04 11:50N 38°22' W 136°33'2012.7
2017-Aug-04 10:14N 38°32' W 136°56'312.4
2017-Aug-04 10:00N 38°33' W 136°59'612.5
2017-Aug-04 09:30N 38°36' W 137°06'612.8
2017-Aug-04 09:00N 38°40' W 137°13'612.8
2017-Aug-04 08:30N 38°43' W 137°20'  

Dump ship's entire track history